sensor_id;sensor_type;location;lat;lon;timestamp;P1;durP1;ratioP1;P2;durP2;ratioP2
15151;SDS011;7676;50.900;6.234;2023-09-18T00:13:49;5.20;;;3.80;;
15151;SDS011;7676;50.900;6.234;2023-09-18T00:28:52;5.13;;;3.97;;
15151;SDS011;7676;50.900;6.234;2023-09-18T00:43:56;5.63;;;3.50;;
15151;SDS011;7676;50.900;6.234;2023-09-18T00:58:59;7.37;;;4.17;;
15151;SDS011;7676;50.900;6.234;2023-09-18T01:14:07;8.43;;;4.43;;
15151;SDS011;7676;50.900;6.234;2023-09-18T01:29:27;7.63;;;4.10;;
15151;SDS011;7676;50.900;6.234;2023-09-18T01:44:31;6.43;;;3.90;;
15151;SDS011;7676;50.900;6.234;2023-09-18T01:59:37;8.47;;;4.60;;
15151;SDS011;7676;50.900;6.234;2023-09-18T02:14:40;9.23;;;4.23;;
15151;SDS011;7676;50.900;6.234;2023-09-18T02:29:43;6.73;;;3.73;;
15151;SDS011;7676;50.900;6.234;2023-09-18T02:44:46;7.33;;;3.67;;
15151;SDS011;7676;50.900;6.234;2023-09-18T02:59:49;4.97;;;3.13;;
15151;SDS011;7676;50.900;6.234;2023-09-18T03:14:52;2.97;;;2.33;;
15151;SDS011;7676;50.900;6.234;2023-09-18T03:29:55;3.80;;;2.23;;
15151;SDS011;7676;50.900;6.234;2023-09-18T03:44:58;5.73;;;2.00;;
15151;SDS011;7676;50.900;6.234;2023-09-18T04:00:00;4.83;;;1.90;;
15151;SDS011;7676;50.900;6.234;2023-09-18T04:15:14;2.03;;;1.53;;
15151;SDS011;7676;50.900;6.234;2023-09-18T04:30:18;2.10;;;1.20;;
15151;SDS011;7676;50.900;6.234;2023-09-18T04:45:22;1.47;;;1.20;;
15151;SDS011;7676;50.900;6.234;2023-09-18T05:00:26;2.30;;;1.30;;
15151;SDS011;7676;50.900;6.234;2023-09-18T05:15:31;1.77;;;1.40;;
15151;SDS011;7676;50.900;6.234;2023-09-18T05:30:35;2.33;;;1.33;;
15151;SDS011;7676;50.900;6.234;2023-09-18T05:45:41;2.00;;;1.30;;
15151;SDS011;7676;50.900;6.234;2023-09-18T06:00:44;2.23;;;1.37;;
15151;SDS011;7676;50.900;6.234;2023-09-18T06:15:47;5.20;;;1.40;;
15151;SDS011;7676;50.900;6.234;2023-09-18T06:30:51;1.40;;;1.10;;
15151;SDS011;7676;50.900;6.234;2023-09-18T06:45:56;1.50;;;1.07;;
15151;SDS011;7676;50.900;6.234;2023-09-18T07:01:02;4.53;;;1.40;;
15151;SDS011;7676;50.900;6.234;2023-09-18T07:16:08;1.60;;;1.10;;
15151;SDS011;7676;50.900;6.234;2023-09-18T07:31:11;2.63;;;1.30;;
15151;SDS011;7676;50.900;6.234;2023-09-18T07:46:14;3.60;;;1.60;;
15151;SDS011;7676;50.900;6.234;2023-09-18T08:01:17;1.83;;;1.33;;
15151;SDS011;7676;50.900;6.234;2023-09-18T08:16:20;2.23;;;1.13;;
15151;SDS011;7676;50.900;6.234;2023-09-18T08:31:23;2.93;;;1.17;;
15151;SDS011;7676;50.900;6.234;2023-09-18T08:46:26;2.47;;;1.13;;
15151;SDS011;7676;50.900;6.234;2023-09-18T09:01:31;4.10;;;1.37;;
15151;SDS011;7676;50.900;6.234;2023-09-18T09:16:34;1.43;;;1.13;;
15151;SDS011;7676;50.900;6.234;2023-09-18T09:31:36;2.10;;;1.30;;
15151;SDS011;7676;50.900;6.234;2023-09-18T09:46:49;2.03;;;1.37;;
15151;SDS011;7676;50.900;6.234;2023-09-18T10:01:53;1.73;;;1.30;;
15151;SDS011;7676;50.900;6.234;2023-09-18T10:16:55;2.03;;;1.30;;
15151;SDS011;7676;50.900;6.234;2023-09-18T10:32:02;1.97;;;1.27;;
15151;SDS011;7676;50.900;6.234;2023-09-18T10:47:06;2.10;;;1.33;;
15151;SDS011;7676;50.900;6.234;2023-09-18T11:02:15;3.17;;;1.57;;
15151;SDS011;7676;50.900;6.234;2023-09-18T11:17:32;4.90;;;1.57;;
15151;SDS011;7676;50.900;6.234;2023-09-18T11:32:40;1.67;;;1.33;;
15151;SDS011;7676;50.900;6.234;2023-09-18T11:47:43;5.63;;;1.60;;
15151;SDS011;7676;50.900;6.234;2023-09-18T12:02:49;3.77;;;1.60;;
15151;SDS011;7676;50.900;6.234;2023-09-18T12:17:55;1.90;;;1.50;;
15151;SDS011;7676;50.900;6.234;2023-09-18T12:32:58;3.23;;;1.47;;
15151;SDS011;7676;50.900;6.234;2023-09-18T12:48:03;2.50;;;1.47;;
15151;SDS011;7676;50.900;6.234;2023-09-18T13:03:08;1.83;;;1.40;;
15151;SDS011;7676;50.900;6.234;2023-09-18T13:18:17;3.73;;;1.50;;
15151;SDS011;7676;50.900;6.234;2023-09-18T13:33:21;5.07;;;1.47;;
15151;SDS011;7676;50.900;6.234;2023-09-18T13:48:25;2.80;;;1.30;;
15151;SDS011;7676;50.900;6.234;2023-09-18T14:03:28;2.13;;;1.40;;
15151;SDS011;7676;50.900;6.234;2023-09-18T14:18:35;3.40;;;1.70;;
15151;SDS011;7676;50.900;6.234;2023-09-18T14:33:38;2.80;;;1.40;;
15151;SDS011;7676;50.900;6.234;2023-09-18T14:48:42;3.30;;;1.80;;
15151;SDS011;7676;50.900;6.234;2023-09-18T15:03:45;4.13;;;1.60;;
15151;SDS011;7676;50.900;6.234;2023-09-18T15:18:48;3.23;;;1.63;;
15151;SDS011;7676;50.900;6.234;2023-09-18T15:33:59;1.67;;;1.40;;
15151;SDS011;7676;50.900;6.234;2023-09-18T15:49:02;2.83;;;1.60;;
15151;SDS011;7676;50.900;6.234;2023-09-18T16:04:05;1.90;;;1.40;;
15151;SDS011;7676;50.900;6.234;2023-09-18T16:19:08;2.87;;;1.60;;
15151;SDS011;7676;50.900;6.234;2023-09-18T16:34:11;1.70;;;1.30;;
15151;SDS011;7676;50.900;6.234;2023-09-18T16:49:14;2.10;;;1.30;;
15151;SDS011;7676;50.900;6.234;2023-09-18T17:04:19;2.63;;;1.50;;
15151;SDS011;7676;50.900;6.234;2023-09-18T17:19:24;3.17;;;1.53;;
15151;SDS011;7676;50.900;6.234;2023-09-18T17:50:01;1.73;;;1.20;;
15151;SDS011;7676;50.900;6.234;2023-09-18T18:05:09;1.80;;;1.10;;
15151;SDS011;7676;50.900;6.234;2023-09-18T18:20:12;2.53;;;1.50;;
15151;SDS011;7676;50.900;6.234;2023-09-18T18:35:17;1.87;;;1.20;;
15151;SDS011;7676;50.900;6.234;2023-09-18T18:50:24;1.83;;;1.00;;
15151;SDS011;7676;50.900;6.234;2023-09-18T19:05:27;2.77;;;1.20;;
15151;SDS011;7676;50.900;6.234;2023-09-18T19:20:31;2.30;;;1.27;;
15151;SDS011;7676;50.900;6.234;2023-09-18T19:35:34;1.50;;;1.17;;
15151;SDS011;7676;50.900;6.234;2023-09-18T19:50:37;1.67;;;1.33;;
15151;SDS011;7676;50.900;6.234;2023-09-18T20:05:41;2.57;;;1.37;;
15151;SDS011;7676;50.900;6.234;2023-09-18T20:20:43;2.20;;;1.40;;
15151;SDS011;7676;50.900;6.234;2023-09-18T20:35:46;1.67;;;1.40;;
15151;SDS011;7676;50.900;6.234;2023-09-18T20:50:55;2.20;;;1.40;;
15151;SDS011;7676;50.900;6.234;2023-09-18T21:08:10;4.10;;;1.30;;
15151;SDS011;7676;50.900;6.234;2023-09-18T21:23:14;3.60;;;1.60;;
15151;SDS011;7676;50.900;6.234;2023-09-18T21:38:17;2.00;;;1.47;;
15151;SDS011;7676;50.900;6.234;2023-09-18T21:53:19;2.27;;;1.30;;
15151;SDS011;7676;50.900;6.234;2023-09-18T22:08:22;3.07;;;1.50;;
15151;SDS011;7676;50.900;6.234;2023-09-18T22:23:27;3.13;;;1.50;;
15151;SDS011;7676;50.900;6.234;2023-09-18T22:38:51;2.70;;;1.33;;
15151;SDS011;7676;50.900;6.234;2023-09-18T23:26:39;4.87;;;1.80;;
15151;SDS011;7676;50.900;6.234;2023-09-18T23:41:41;4.20;;;1.63;;
15151;SDS011;7676;50.900;6.234;2023-09-18T23:56:54;5.67;;;1.47;;
